Time,TemperatureF,DewpointF,PressureIn,WindDirection,WindDirectionDegrees,WindSpeedMPH,WindSpeedGustMPH,Humidity,HourlyPrecipIn,Conditions,Clouds,dailyrainin,SoftwareType,DateUTC
2013-01-05 00:00:00,23.0,17.5,29.53,SW,225,0.0,0.0,79,0.00,,,0.00,WUHU21623XXSP,2013-01-05 05:00:00,
2013-01-05 00:01:00,23.0,17.5,29.53,SW,225,0.0,0.0,79,0.00,,,0.00,WUHU21623XXSP,2013-01-05 05:01:00,
2013-01-05 00:06:00,23.0,17.5,29.53,West,270,0.0,0.0,79,0.00,,,0.00,WUHU21623XXSP,2013-01-05 05:06:00,
2013-01-05 00:11:00,22.8,17.3,29.52,SSW,202,0.0,0.0,79,0.00,,,0.00,WUHU21623XXSP,2013-01-05 05:11:00,
2013-01-05 00:16:00,22.8,17.3,29.52,SSW,202,0.0,0.0,79,0.00,,,0.00,WUHU21623XXSP,2013-01-05 05:16:00,
2013-01-05 00:21:00,22.6,17.3,29.52,SW,225,0.0,0.0,79,0.00,,,0.00,WUHU21623XXSP,2013-01-05 05:21:00,
2013-01-05 00:26:00,22.6,17.1,29.52,WNW,292,0.0,0.0,79,0.00,,,0.00,WUHU21623XXSP,2013-01-05 05:26:00,
2013-01-05 00:31:00,22.5,17.1,29.53,West,270,0.0,0.0,79,0.00,,,0.00,WUHU21623XXSP,2013-01-05 05:31:00,
2013-01-05 00:36:00,22.3,16.8,29.52,SW,225,0.0,0.0,79,0.00,,,0.00,WUHU21623XXSP,2013-01-05 05:36:00,
2013-01-05 00:41:00,22.1,16.6,29.52,North,0,0.0,0.0,79,0.00,,,0.00,WUHU21623XXSP,2013-01-05 05:41:00,
2013-01-05 00:46:00,21.9,16.4,29.52,WSW,247,0.0,0.0,79,0.00,,,0.00,WUHU21623XXSP,2013-01-05 05:46:00,
2013-01-05 00:51:00,21.7,16.2,29.52,SW,225,0.0,0.0,79,0.00,,,0.00,WUHU21623XXSP,2013-01-05 05:51:00,
2013-01-05 00:56:00,21.6,16.2,29.52,South,180,0.0,0.0,79,0.00,,,0.00,WUHU21623XXSP,2013-01-05 05:56:00,
2013-01-05 01:01:00,21.6,16.0,29.52,WSW,247,0.0,0.0,79,0.00,,,0.00,WUHU21623XXSP,2013-01-05 06:01:00,
2013-01-05 01:06:00,21.6,16.0,29.52,WSW,247,0.0,0.0,79,0.00,,,0.00,WUHU21623XXSP,2013-01-05 06:06:00,
2013-01-05 01:11:00,21.6,16.3,29.52,WNW,292,0.0,0.0,80,0.00,,,0.00,WUHU21623XXSP,2013-01-05 06:11:00,
2013-01-05 01:16:00,21.6,16.3,29.52,WSW,247,0.0,0.0,80,0.00,,,0.00,WUHU21623XXSP,2013-01-05 06:16:00,
2013-01-05 01:21:00,21.4,16.2,29.52,South,180,0.0,0.0,80,0.00,,,0.00,WUHU21623XXSP,2013-01-05 06:21:00,
2013-01-05 01:26:00,21.4,16.2,29.52,West,270,0.0,0.0,80,0.00,,,0.00,WUHU21623XXSP,2013-01-05 06:26:00,
2013-01-05 01:31:00,21.4,16.2,29.52,WSW,247,0.0,0.0,80,0.00,,,0.00,WUHU21623XXSP,2013-01-05 06:31:00,
2013-01-05 01:36:00,21.7,16.8,29.52,West,270,0.0,0.0,81,0.00,,,0.00,WUHU21623XXSP,2013-01-05 06:36:00,
2013-01-05 01:41:00,21.7,16.8,29.51,WNW,292,0.0,0.0,81,0.00,,,0.00,WUHU21623XXSP,2013-01-05 06:41:00,
2013-01-05 01:46:00,21.9,16.8,29.51,SW,225,0.0,0.0,81,0.00,,,0.00,WUHU21623XXSP,2013-01-05 06:46:00,
2013-01-05 01:51:00,21.9,17.0,29.51,WSW,247,0.0,0.0,81,0.00,,,0.00,WUHU21623XXSP,2013-01-05 06:51:00,
2013-01-05 01:56:00,21.9,17.0,29.51,SE,135,0.0,0.0,81,0.00,,,0.00,WUHU21623XXSP,2013-01-05 06:56:00,
2013-01-05 02:01:00,21.9,16.5,29.52,South,180,0.0,0.0,80,0.00,,,0.00,WUHU21623XXSP,2013-01-05 07:01:00,
2013-01-05 02:06:00,21.6,16.3,29.52,West,270,0.0,0.0,80,0.00,,,0.00,WUHU21623XXSP,2013-01-05 07:06:00,
2013-01-05 02:12:00,21.4,16.2,29.52,West,270,0.0,0.0,80,0.00,,,0.00,WUHU21623XXSP,2013-01-05 07:12:00,
2013-01-05 02:17:00,21.4,16.2,29.52,North,0,0.0,0.0,80,0.00,,,0.00,WUHU21623XXSP,2013-01-05 07:17:00,
2013-01-05 02:22:00,21.4,16.2,29.52,WSW,247,0.0,0.0,80,0.00,,,0.00,WUHU21623XXSP,2013-01-05 07:22:00,
2013-01-05 02:27:00,21.4,16.2,29.52,WSW,247,0.0,0.0,80,0.00,,,0.00,WUHU21623XXSP,2013-01-05 07:27:00,
2013-01-05 02:32:00,21.4,16.4,29.52,WSW,247,0.0,0.0,81,0.00,,,0.00,WUHU21623XXSP,2013-01-05 07:32:00,
2013-01-05 02:37:00,21.6,16.6,29.53,SSW,202,0.0,0.0,81,0.00,,,0.00,WUHU21623XXSP,2013-01-05 07:37:00,
2013-01-05 02:42:00,21.6,16.6,29.53,WNW,292,0.0,0.0,81,0.00,,,0.00,WUHU21623XXSP,2013-01-05 07:42:00,
2013-01-05 02:47:00,21.7,16.8,29.53,WNW,292,0.0,0.0,81,0.00,,,0.00,WUHU21623XXSP,2013-01-05 07:47:00,
2013-01-05 02:52:00,21.9,17.0,29.52,WSW,247,0.0,0.0,81,0.00,,,0.00,WUHU21623XXSP,2013-01-05 07:52:00,
2013-01-05 02:57:00,21.9,17.0,29.53,West,270,0.0,0.0,82,0.00,,,0.00,WUHU21623XXSP,2013-01-05 07:57:00,
2013-01-05 03:02:00,21.9,17.2,29.53,West,270,0.0,0.0,82,0.00,,,0.00,WUHU21623XXSP,2013-01-05 08:02:00,
2013-01-05 03:07:00,21.9,17.2,29.53,WSW,247,0.0,0.0,82,0.00,,,0.00,WUHU21623XXSP,2013-01-05 08:07:00,
2013-01-05 03:12:00,22.1,17.4,29.53,West,270,0.0,0.0,82,0.00,,,0.00,WUHU21623XXSP,2013-01-05 08:12:00,
2013-01-05 03:17:00,22.1,17.4,29.53,SW,225,0.0,0.0,82,0.00,,,0.00,WUHU21623XXSP,2013-01-05 08:17:00,
2013-01-05 03:22:00,22.3,17.6,29.54,NW,315,0.0,0.0,82,0.00,,,0.00,WUHU21623XXSP,2013-01-05 08:22:00,
2013-01-05 03:27:00,22.3,17.6,29.54,West,270,0.0,0.0,82,0.00,,,0.00,WUHU21623XXSP,2013-01-05 08:27:00,
2013-01-05 03:32:00,22.5,17.8,29.54,WSW,247,1.3,2.5,82,0.00,,,0.00,WUHU21623XXSP,2013-01-05 08:32:00,
2013-01-05 03:37:00,22.6,18.0,29.54,WSW,247,0.0,2.5,82,0.00,,,0.00,WUHU21623XXSP,2013-01-05 08:37:00,
2013-01-05 03:42:00,22.6,18.0,29.54,WSW,247,2.0,2.0,82,0.00,,,0.00,WUHU21623XXSP,2013-01-05 08:42:00,
2013-01-05 03:47:00,22.8,18.4,29.54,WSW,247,0.0,2.5,83,0.00,,,0.00,WUHU21623XXSP,2013-01-05 08:47:00,
2013-01-05 03:52:00,22.8,18.1,29.54,WNW,292,1.3,2.5,82,0.00,,,0.00,WUHU21623XXSP,2013-01-05 08:52:00,
2013-01-05 03:57:00,23.0,18.3,29.53,WSW,247,0.0,1.6,82,0.00,,,0.00,WUHU21623XXSP,2013-01-05 08:57:00,
2013-01-05 04:02:00,23.2,18.5,29.53,NW,315,0.0,1.6,82,0.00,,,0.00,WUHU21623XXSP,2013-01-05 09:02:00,
2013-01-05 04:07:00,23.2,18.5,29.53,WSW,247,0.0,0.0,82,0.00,,,0.00,WUHU21623XXSP,2013-01-05 09:07:00,
2013-01-05 04:12:00,23.0,18.5,29.53,West,270,0.0,0.0,82,0.00,,,0.00,WUHU21623XXSP,2013-01-05 09:12:00,
2013-01-05 04:17:00,23.0,18.3,29.53,WSW,247,0.0,0.0,82,0.00,,,0.00,WUHU21623XXSP,2013-01-05 09:17:00,
2013-01-05 04:22:00,22.8,18.1,29.53,West,270,0.0,0.0,82,0.00,,,0.00,WUHU21623XXSP,2013-01-05 09:22:00,
2013-01-05 04:27:00,22.8,18.1,29.53,SSW,202,0.0,0.0,82,0.00,,,0.00,WUHU21623XXSP,2013-01-05 09:27:00,
2013-01-05 04:32:00,22.6,18.0,29.53,SSW,202,0.0,0.0,82,0.00,,,0.00,WUHU21623XXSP,2013-01-05 09:32:00,
2013-01-05 04:37:00,22.5,17.8,29.52,West,270,0.0,0.0,82,0.00,,,0.00,WUHU21623XXSP,2013-01-05 09:37:00,
2013-01-05 04:42:00,22.3,17.6,29.52,South,180,0.0,0.0,82,0.00,,,0.00,WUHU21623XXSP,2013-01-05 09:42:00,
2013-01-05 04:48:00,22.1,17.6,29.52,SSE,157,0.0,0.0,82,0.00,,,0.00,WUHU21623XXSP,2013-01-05 09:48:00,
2013-01-05 04:52:00,21.9,17.2,29.52,SE,135,0.0,0.0,82,0.00,,,0.00,WUHU21623XXSP,2013-01-05 09:52:00,
2013-01-05 04:58:00,21.7,17.1,29.52,SSE,157,0.0,0.0,82,0.00,,,0.00,WUHU21623XXSP,2013-01-05 09:58:00,
2013-01-05 05:03:00,21.6,16.9,29.52,SE,135,0.0,0.0,82,0.00,,,0.00,WUHU21623XXSP,2013-01-05 10:03:00,
2013-01-05 05:08:00,21.4,16.7,29.52,South,180,0.0,0.0,81,0.00,,,0.00,WUHU21623XXSP,2013-01-05 10:08:00,
2013-01-05 05:13:00,20.8,16.1,29.52,SE,135,0.0,0.0,81,0.00,,,0.00,WUHU21623XXSP,2013-01-05 10:13:00,
2013-01-05 05:18:00,20.8,15.9,29.52,SSW,202,0.0,0.0,81,0.00,,,0.00,WUHU21623XXSP,2013-01-05 10:18:00,
2013-01-05 05:23:00,20.3,15.5,29.53,SE,135,0.0,0.0,81,0.00,,,0.00,WUHU21623XXSP,2013-01-05 10:23:00,
2013-01-05 05:28:00,20.1,15.2,29.53,SSE,157,0.0,0.0,81,0.00,,,0.00,WUHU21623XXSP,2013-01-05 10:28:00,
2013-01-05 05:33:00,20.1,15.2,29.52,SSE,157,0.0,0.0,81,0.00,,,0.00,WUHU21623XXSP,2013-01-05 10:33:00,
2013-01-05 05:38:00,19.9,15.0,29.53,SE,135,0.0,0.0,81,0.00,,,0.00,WUHU21623XXSP,2013-01-05 10:38:00,
2013-01-05 05:43:00,19.9,15.0,29.53,SE,135,0.0,0.0,81,0.00,,,0.00,WUHU21623XXSP,2013-01-05 10:43:00,
2013-01-05 05:48:00,19.9,15.0,29.53,SE,135,0.0,0.0,81,0.00,,,0.00,WUHU21623XXSP,2013-01-05 10:48:00,
2013-01-05 05:53:00,19.9,15.0,29.53,SSW,202,0.0,0.0,81,0.00,,,0.00,WUHU21623XXSP,2013-01-05 10:53:00,
2013-01-05 05:58:00,19.9,15.0,29.53,SE,135,0.0,0.0,81,0.00,,,0.00,WUHU21623XXSP,2013-01-05 10:58:00,
2013-01-05 06:03:00,19.9,15.0,29.53,SE,135,0.0,0.0,81,0.00,,,0.00,WUHU21623XXSP,2013-01-05 11:03:00,
2013-01-05 06:08:00,19.9,15.0,29.53,South,180,0.0,0.0,81,0.00,,,0.00,WUHU21623XXSP,2013-01-05 11:08:00,
2013-01-05 06:13:00,19.9,15.0,29.53,ESE,112,0.0,0.0,81,0.00,,,0.00,WUHU21623XXSP,2013-01-05 11:13:00,
2013-01-05 06:18:00,19.8,15.0,29.52,ESE,112,0.0,0.0,81,0.00,,,0.00,WUHU21623XXSP,2013-01-05 11:18:00,
2013-01-05 06:23:00,19.4,14.4,29.52,SE,135,0.0,0.0,81,0.00,,,0.00,WUHU21623XXSP,2013-01-05 11:23:00,
2013-01-05 06:28:00,19.2,14.3,29.52,SE,135,0.0,0.0,81,0.00,,,0.00,WUHU21623XXSP,2013-01-05 11:28:00,
2013-01-05 06:33:00,19.0,13.8,29.52,SE,135,0.0,0.0,80,0.00,,,0.00,WUHU21623XXSP,2013-01-05 11:33:00,
2013-01-05 06:38:00,18.5,13.3,29.51,SE,135,0.0,0.0,80,0.00,,,0.00,WUHU21623XXSP,2013-01-05 11:38:00,
2013-01-05 06:43:00,18.3,13.1,29.51,SSE,157,0.0,0.0,80,0.00,,,0.00,WUHU21623XXSP,2013-01-05 11:43:00,
2013-01-05 06:48:00,18.3,13.1,29.51,SE,135,0.0,0.0,80,0.00,,,0.00,WUHU21623XXSP,2013-01-05 11:48:00,
2013-01-05 06:53:00,18.3,13.1,29.51,SSE,157,0.0,0.0,80,0.00,,,0.00,WUHU21623XXSP,2013-01-05 11:53:00,
2013-01-05 06:58:00,18.3,13.1,29.51,SSE,157,0.0,0.0,80,0.00,,,0.00,WUHU21623XXSP,2013-01-05 11:58:00,
2013-01-05 07:03:00,18.3,13.1,29.52,SSW,202,0.0,0.0,80,0.00,,,0.00,WUHU21623XXSP,2013-01-05 12:03:00,
2013-01-05 07:08:00,18.3,13.1,29.52,SSE,157,0.0,0.0,80,0.00,,,0.00,WUHU21623XXSP,2013-01-05 12:08:00,
2013-01-05 07:13:00,18.3,13.1,29.52,SSE,157,0.0,0.0,80,0.00,,,0.00,WUHU21623XXSP,2013-01-05 12:13:00,
2013-01-05 07:18:00,18.1,12.9,29.52,SSE,157,0.0,0.0,80,0.00,,,0.00,WUHU21623XXSP,2013-01-05 12:18:00,
2013-01-05 07:23:00,18.0,12.7,29.52,SE,135,0.0,0.0,80,0.00,,,0.00,WUHU21623XXSP,2013-01-05 12:23:00,
2013-01-05 07:28:00,17.8,12.6,29.52,SSE,157,0.0,0.0,80,0.00,,,0.00,WUHU21623XXSP,2013-01-05 12:28:00,
2013-01-05 07:33:00,18.0,12.7,29.52,SSE,157,0.0,0.0,80,0.00,,,0.00,WUHU21623XXSP,2013-01-05 12:33:00,
2013-01-05 07:38:00,18.1,12.9,29.51,SSE,157,0.0,0.0,80,0.00,,,0.00,WUHU21623XXSP,2013-01-05 12:38:00,
2013-01-05 07:43:00,18.3,13.4,29.51,SE,135,0.0,0.0,81,0.00,,,0.00,WUHU21623XXSP,2013-01-05 12:43:00,
2013-01-05 07:48:00,18.5,13.6,29.52,SSE,157,0.0,0.0,81,0.00,,,0.00,WUHU21623XXSP,2013-01-05 12:48:00,
2013-01-05 07:53:00,18.9,13.9,29.52,SSE,157,0.0,0.0,81,0.00,,,0.00,WUHU21623XXSP,2013-01-05 12:53:00,
2013-01-05 07:58:00,19.0,14.1,29.52,SSW,202,0.0,0.0,81,0.00,,,0.00,WUHU21623XXSP,2013-01-05 12:58:00,
2013-01-05 08:03:00,19.2,14.3,29.51,SSW,202,0.0,0.0,81,0.00,,,0.00,WUHU21623XXSP,2013-01-05 13:03:00,
2013-01-05 08:08:00,19.2,14.5,29.52,South,180,0.0,0.0,82,0.00,,,0.00,WUHU21623XXSP,2013-01-05 13:08:00,
2013-01-05 08:13:00,19.4,14.5,29.52,South,180,0.0,0.0,82,0.00,,,0.00,WUHU21623XXSP,2013-01-05 13:13:00,
2013-01-05 08:18:00,19.4,14.7,29.52,WSW,247,2.5,2.5,82,0.00,,,0.00,WUHU21623XXSP,2013-01-05 13:18:00,
2013-01-05 08:23:00,19.6,14.9,29.52,South,180,0.0,2.5,82,0.00,,,0.00,WUHU21623XXSP,2013-01-05 13:23:00,
2013-01-05 08:28:00,19.6,14.9,29.52,SSW,202,0.0,1.6,82,0.00,,,0.00,WUHU21623XXSP,2013-01-05 13:28:00,
2013-01-05 08:33:00,19.6,15.2,29.52,South,180,0.0,0.0,83,0.00,,,0.00,WUHU21623XXSP,2013-01-05 13:33:00,
2013-01-05 08:38:00,19.8,15.3,29.52,SSE,157,0.0,0.0,83,0.00,,,0.00,WUHU21623XXSP,2013-01-05 13:38:00,
2013-01-05 08:43:00,19.9,15.5,29.52,SSE,157,0.0,0.0,83,0.00,,,0.00,WUHU21623XXSP,2013-01-05 13:43:00,
2013-01-05 08:48:00,19.9,15.5,29.52,SSE,157,0.0,2.7,83,0.00,,,0.00,WUHU21623XXSP,2013-01-05 13:48:00,
2013-01-05 08:53:00,20.1,15.7,29.52,ESE,112,0.0,2.7,83,0.00,,,0.00,WUHU21623XXSP,2013-01-05 13:53:00,
2013-01-05 08:58:00,20.3,15.9,29.52,SE,135,0.0,0.0,83,0.00,,,0.00,WUHU21623XXSP,2013-01-05 13:58:00,
2013-01-05 09:03:00,20.3,15.9,29.51,SSE,157,0.0,0.0,83,0.00,,,0.00,WUHU21623XXSP,2013-01-05 14:03:00,
2013-01-05 09:08:00,20.5,15.8,29.51,SSE,157,0.0,0.0,82,0.00,,,0.00,WUHU21623XXSP,2013-01-05 14:08:00,
2013-01-05 09:14:00,20.5,15.8,29.51,SSE,157,0.0,0.0,82,0.00,,,0.00,WUHU21623XXSP,2013-01-05 14:14:00,
2013-01-05 09:19:00,20.8,16.2,29.51,SE,135,0.0,0.0,82,0.00,,,0.00,WUHU21623XXSP,2013-01-05 14:19:00,
2013-01-05 09:24:00,20.8,16.2,29.51,SE,135,0.0,0.0,82,0.00,,,0.00,WUHU21623XXSP,2013-01-05 14:24:00,
2013-01-05 09:29:00,21.0,16.2,29.52,South,180,0.0,0.0,82,0.00,,,0.00,WUHU21623XXSP,2013-01-05 14:29:00,
2013-01-05 09:34:00,21.4,16.7,29.52,SSE,157,0.0,0.0,82,0.00,,,0.00,WUHU21623XXSP,2013-01-05 14:34:00,
2013-01-05 09:39:00,21.7,16.9,29.52,SSW,202,4.3,4.3,82,0.00,,,0.00,WUHU21623XXSP,2013-01-05 14:39:00,
2013-01-05 09:44:00,22.1,17.2,29.52,SW,225,0.0,4.3,82,0.00,,,0.00,WUHU21623XXSP,2013-01-05 14:44:00,
2013-01-05 09:49:00,22.6,17.8,29.52,SSW,202,1.6,1.6,82,0.00,,,0.00,WUHU21623XXSP,2013-01-05 14:49:00,
2013-01-05 09:54:00,23.2,18.5,29.52,SSW,202,1.6,1.6,82,0.00,,,0.00,WUHU21623XXSP,2013-01-05 14:54:00,
2013-01-05 09:59:00,23.5,18.9,29.52,South,180,2.5,2.9,82,0.00,,,0.00,WUHU21623XXSP,2013-01-05 14:59:00,
2013-01-05 10:04:00,23.9,19.2,29.52,South,180,0.0,2.9,82,0.00,,,0.00,WUHU21623XXSP,2013-01-05 15:04:00,
2013-01-05 10:09:00,24.4,19.5,29.51,SE,135,0.0,0.0,81,0.00,,,0.00,WUHU21623XXSP,2013-01-05 15:09:00,
2013-01-05 10:14:00,24.6,19.7,29.51,South,180,0.9,0.9,81,0.00,,,0.00,WUHU21623XXSP,2013-01-05 15:14:00,
2013-01-05 10:19:00,24.6,19.7,29.51,SSE,157,0.0,0.9,81,0.00,,,0.00,WUHU21623XXSP,2013-01-05 15:19:00,
2013-01-05 10:24:00,25.5,20.3,29.51,ESE,112,0.0,0.9,81,0.00,,,0.00,WUHU21623XXSP,2013-01-05 15:24:00,
2013-01-05 10:29:00,25.5,20.2,29.51,SSW,202,0.0,0.0,80,0.00,,,0.00,WUHU21623XXSP,2013-01-05 15:29:00,
2013-01-05 10:34:00,25.7,20.4,29.51,South,180,2.2,2.5,80,0.00,,,0.00,WUHU21623XXSP,2013-01-05 15:34:00,
2013-01-05 10:39:00,25.9,20.6,29.51,South,180,3.4,3.4,80,0.00,,,0.00,WUHU21623XXSP,2013-01-05 15:39:00,
2013-01-05 10:44:00,26.2,20.9,29.51,South,180,1.3,5.6,80,0.00,,,0.00,WUHU21623XXSP,2013-01-05 15:44:00,
2013-01-05 10:49:00,26.6,20.9,29.50,SW,225,7.4,7.4,79,0.00,,,0.00,WUHU21623XXSP,2013-01-05 15:49:00,
2013-01-05 10:54:00,26.8,21.1,29.51,WSW,247,5.4,7.4,79,0.00,,,0.00,WUHU21623XXSP,2013-01-05 15:54:00,
2013-01-05 10:59:00,27.1,21.4,29.51,SSE,157,2.5,5.4,79,0.00,,,0.00,WUHU21623XXSP,2013-01-05 15:59:00,
2013-01-05 11:04:00,27.3,21.6,29.51,SSE,157,2.5,2.5,79,0.00,,,0.00,WUHU21623XXSP,2013-01-05 16:04:00,
2013-01-05 11:09:00,28.0,22.0,29.50,SSW,202,3.1,3.1,78,0.00,,,0.00,WUHU21623XXSP,2013-01-05 16:09:00,
2013-01-05 11:14:00,28.2,22.2,29.50,SSE,157,0.0,3.1,78,0.00,,,0.00,WUHU21623XXSP,2013-01-05 16:14:00,
2013-01-05 11:19:00,28.8,22.7,29.50,SSW,202,2.9,3.1,78,0.00,,,0.00,WUHU21623XXSP,2013-01-05 16:19:00,
2013-01-05 11:24:00,29.1,22.8,29.50,South,180,5.6,5.6,77,0.00,,,0.00,WUHU21623XXSP,2013-01-05 16:24:00,
2013-01-05 11:29:00,29.5,23.1,29.50,South,180,2.5,7.2,77,0.00,,,0.00,WUHU21623XXSP,2013-01-05 16:29:00,
2013-01-05 11:34:00,30.0,23.6,29.50,WSW,247,1.8,8.1,77,0.00,,,0.00,WUHU21623XXSP,2013-01-05 16:34:00,
2013-01-05 11:39:00,30.0,23.3,29.50,SSW,202,2.5,8.1,76,0.00,,,0.00,WUHU21623XXSP,2013-01-05 16:39:00,
2013-01-05 11:44:00,30.2,23.5,29.49,South,180,5.4,5.4,76,0.00,,,0.00,WUHU21623XXSP,2013-01-05 16:44:00,
2013-01-05 11:49:00,30.7,23.7,29.49,SSE,157,1.6,5.4,76,0.00,,,0.00,WUHU21623XXSP,2013-01-05 16:49:00,
2013-01-05 11:54:00,31.1,24.4,29.49,South,180,6.7,6.7,76,0.00,,,0.00,WUHU21623XXSP,2013-01-05 16:54:00,
2013-01-05 11:59:00,31.6,24.6,29.48,SSW,202,8.9,8.9,75,0.00,,,0.00,WUHU21623XXSP,2013-01-05 16:59:00,
2013-01-05 12:04:00,32.0,25.0,29.48,South,180,5.1,8.9,75,0.00,,,0.00,WUHU21623XXSP,2013-01-05 17:04:00,
2013-01-05 12:09:00,32.4,25.3,29.48,SSW,202,7.8,7.8,75,0.00,,,0.00,WUHU21623XXSP,2013-01-05 17:09:00,
2013-01-05 12:14:00,32.7,25.3,29.48,South,180,3.4,7.8,74,0.00,,,0.00,WUHU21623XXSP,2013-01-05 17:14:00,
2013-01-05 12:19:00,32.7,25.3,29.47,SSW,202,0.0,7.8,74,0.00,,,0.00,WUHU21623XXSP,2013-01-05 17:19:00,
2013-01-05 12:24:00,32.7,25.3,29.48,SW,225,0.0,3.1,74,0.00,,,0.00,WUHU21623XXSP,2013-01-05 17:24:00,
2013-01-05 12:29:00,32.7,25.3,29.47,SSW,202,2.7,2.7,74,0.00,,,0.00,WUHU21623XXSP,2013-01-05 17:29:00,
2013-01-05 12:34:00,32.7,25.3,29.47,South,180,0.0,3.6,74,0.00,,,0.00,WUHU21623XXSP,2013-01-05 17:34:00,
2013-01-05 12:39:00,32.9,25.5,29.47,South,180,5.4,5.4,74,0.00,,,0.00,WUHU21623XXSP,2013-01-05 17:39:00,
2013-01-05 12:44:00,33.4,26.0,29.47,SSW,202,3.8,5.4,74,0.00,,,0.00,WUHU21623XXSP,2013-01-05 17:44:00,
2013-01-05 12:49:00,33.6,26.1,29.46,SSW,202,5.1,5.4,74,0.00,,,0.00,WUHU21623XXSP,2013-01-05 17:49:00,
2013-01-05 12:54:00,34.0,26.3,29.46,SSW,202,5.1,5.1,73,0.00,,,0.00,WUHU21623XXSP,2013-01-05 17:54:00,
2013-01-05 12:59:00,34.2,26.3,29.45,WSW,247,3.1,5.1,73,0.00,,,0.00,WUHU21623XXSP,2013-01-05 17:59:00,
2013-01-05 13:04:00,34.5,26.7,29.45,South,180,4.0,4.0,73,0.00,,,0.00,WUHU21623XXSP,2013-01-05 18:04:00,
2013-01-05 13:09:00,34.9,27.0,29.45,SW,225,3.1,4.0,72,0.00,,,0.00,WUHU21623XXSP,2013-01-05 18:09:00,
2013-01-05 13:14:00,35.2,27.1,29.44,South,180,3.6,3.6,72,0.00,,,0.00,WUHU21623XXSP,2013-01-05 18:14:00,
2013-01-05 13:19:00,35.2,27.1,29.43,SSW,202,7.8,7.8,71,0.00,,,0.00,WUHU21623XXSP,2013-01-05 18:19:00,
2013-01-05 13:24:00,35.2,26.7,29.42,SSW,202,7.8,7.8,71,0.00,,,0.00,WUHU21623XXSP,2013-01-05 18:24:00,
2013-01-05 13:29:00,35.2,26.7,29.42,South,180,6.3,7.8,71,0.00,,,0.00,WUHU21623XXSP,2013-01-05 18:29:00,
2013-01-05 13:34:00,35.2,26.7,29.43,South,180,6.3,6.3,71,0.00,,,0.00,WUHU21623XXSP,2013-01-05 18:34:00,
2013-01-05 13:40:00,35.2,26.7,29.43,SSW,202,3.8,6.3,71,0.00,,,0.00,WUHU21623XXSP,2013-01-05 18:40:00,
2013-01-05 13:45:00,36.3,27.5,29.42,SSW,202,4.7,6.3,70,0.00,,,0.00,WUHU21623XXSP,2013-01-05 18:45:00,
2013-01-05 13:49:00,36.3,27.5,29.42,SSW,202,4.7,4.7,70,0.00,,,0.00,WUHU21623XXSP,2013-01-05 18:49:00,
2013-01-05 13:54:00,36.3,27.5,29.42,South,180,2.2,4.7,70,0.00,,,0.00,WUHU21623XXSP,2013-01-05 18:54:00,
2013-01-05 13:59:00,36.7,27.9,29.41,South,180,2.2,4.7,70,0.00,,,0.00,WUHU21623XXSP,2013-01-05 18:59:00,
2013-01-05 14:04:00,36.7,27.9,29.41,South,180,2.2,2.2,70,0.00,,,0.00,WUHU21623XXSP,2013-01-05 19:04:00,
2013-01-05 14:09:00,36.3,27.5,29.40,SSW,202,6.9,6.9,70,0.00,,,0.00,WUHU21623XXSP,2013-01-05 19:09:00,
2013-01-05 14:14:00,36.3,27.5,29.40,SSW,202,6.9,6.9,70,0.00,,,0.00,WUHU21623XXSP,2013-01-05 19:14:00,
2013-01-05 14:19:00,36.3,27.5,29.40,SSW,202,6.9,6.9,70,0.00,,,0.00,WUHU21623XXSP,2013-01-05 19:19:00,
2013-01-05 14:24:00,36.3,27.5,29.40,SSW,202,6.9,6.9,70,0.00,,,0.00,WUHU21623XXSP,2013-01-05 19:24:00,
2013-01-05 14:29:00,36.3,27.5,29.39,SSW,202,6.9,6.9,70,0.00,,,0.00,WUHU21623XXSP,2013-01-05 19:29:00,
2013-01-05 14:34:00,36.3,27.5,29.40,SSW,202,6.9,6.9,70,0.00,,,0.00,WUHU21623XXSP,2013-01-05 19:34:00,
2013-01-05 14:39:00,36.3,27.5,29.40,SSW,202,6.9,6.9,70,0.00,,,0.00,WUHU21623XXSP,2013-01-05 19:39:00,
2013-01-05 16:08:00,34.7,26.5,29.39,WNW,292,2.2,2.2,72,0.00,,,0.00,WUHU21623XXSP,2013-01-05 21:08:00,
2013-01-05 16:13:00,34.9,26.7,29.40,West,270,6.0,6.0,72,0.00,,,0.00,WUHU21623XXSP,2013-01-05 21:13:00,
2013-01-05 16:18:00,34.9,26.7,29.40,West,270,11.4,11.4,72,0.00,,,0.00,WUHU21623XXSP,2013-01-05 21:18:00,
2013-01-05 16:23:00,34.5,27.6,29.41,West,270,4.3,13.9,76,0.00,,,0.00,WUHU21623XXSP,2013-01-05 21:23:00,
2013-01-05 16:27:00,34.0,27.8,29.41,SSE,157,2.2,13.9,78,0.00,,,0.00,WUHU21623XXSP,2013-01-05 21:27:00,
2013-01-05 16:32:00,33.6,27.7,29.41,WNW,292,4.9,4.9,79,0.00,,,0.00,WUHU21623XXSP,2013-01-05 21:32:00,
2013-01-05 16:38:00,33.3,27.4,29.41,West,270,0.0,4.9,81,0.00,,,0.00,WUHU21623XXSP,2013-01-05 21:38:00,
2013-01-05 16:43:00,33.1,28.1,29.40,SW,225,5.6,5.6,82,0.00,,,0.00,WUHU21623XXSP,2013-01-05 21:43:00,
2013-01-05 16:48:00,32.9,28.0,29.41,SW,225,2.0,5.6,82,0.00,,,0.00,WUHU21623XXSP,2013-01-05 21:48:00,
2013-01-05 16:53:00,32.7,27.8,29.41,WNW,292,0.0,5.6,82,0.00,,,0.00,WUHU21623XXSP,2013-01-05 21:53:00,
2013-01-05 16:57:00,32.7,27.8,29.41,WNW,292,0.0,0.0,82,0.00,,,0.00,WUHU21623XXSP,2013-01-05 21:57:00,
2013-01-05 17:03:00,32.7,27.8,29.40,WNW,292,0.0,0.0,82,0.00,,,0.00,WUHU21623XXSP,2013-01-05 22:03:00,
2013-01-05 17:08:00,32.7,27.8,29.40,WNW,292,0.0,0.0,82,0.00,,,0.00,WUHU21623XXSP,2013-01-05 22:08:00,
2013-01-05 17:12:00,32.7,27.8,29.40,WNW,292,0.0,0.0,83,0.00,,,0.00,WUHU21623XXSP,2013-01-05 22:12:00,
2013-01-05 17:17:00,32.7,28.1,29.40,WNW,292,0.0,0.0,83,0.00,,,0.00,WUHU21623XXSP,2013-01-05 22:17:00,
2013-01-05 17:22:00,32.7,28.1,29.40,WNW,292,0.0,0.0,83,0.00,,,0.00,WUHU21623XXSP,2013-01-05 22:22:00,
2013-01-05 17:27:00,32.7,28.1,29.39,WNW,292,0.0,0.0,83,0.00,,,0.00,WUHU21623XXSP,2013-01-05 22:27:00,
2013-01-05 17:33:00,32.7,28.1,29.39,WNW,292,0.0,0.0,83,0.00,,,0.00,WUHU21623XXSP,2013-01-05 22:33:00,
2013-01-05 17:38:00,32.7,28.1,29.39,WNW,292,0.0,0.0,83,0.00,,,0.00,WUHU21623XXSP,2013-01-05 22:38:00,
2013-01-05 17:50:00,32.4,27.8,29.40,WSW,247,4.0,4.0,83,0.00,,,0.00,WUHU21623XXSP,2013-01-05 22:50:00,
2013-01-05 17:55:00,32.2,27.8,29.39,WSW,247,4.0,4.0,83,0.00,,,0.00,WUHU21623XXSP,2013-01-05 22:55:00,
2013-01-05 18:00:00,32.2,27.6,29.39,South,180,3.8,4.0,83,0.00,,,0.00,WUHU21623XXSP,2013-01-05 23:00:00,
2013-01-05 18:05:00,32.2,27.9,29.39,South,180,2.9,57.3,84,0.00,,,0.00,WUHU21623XXSP,2013-01-05 23:05:00,
2013-01-05 18:10:00,32.2,27.9,29.39,South,180,2.9,57.3,84,0.00,,,0.00,WUHU21623XXSP,2013-01-05 23:10:00,
2013-01-05 18:15:00,32.2,27.9,29.39,South,180,2.9,2.9,84,0.00,,,0.00,WUHU21623XXSP,2013-01-05 23:15:00,
2013-01-05 18:20:00,32.2,27.9,29.39,SSW,202,3.8,3.8,84,0.00,,,0.00,WUHU21623XXSP,2013-01-05 23:20:00,
2013-01-05 18:25:00,32.2,27.9,29.38,SSW,202,3.8,3.8,84,0.00,,,0.00,WUHU21623XXSP,2013-01-05 23:25:00,
2013-01-05 18:30:00,32.2,27.9,29.38,SSW,202,3.8,3.8,84,0.00,,,0.00,WUHU21623XXSP,2013-01-05 23:30:00,
2013-01-05 18:35:00,32.2,27.9,29.38,SSW,202,3.8,3.8,84,0.00,,,0.00,WUHU21623XXSP,2013-01-05 23:35:00,
2013-01-05 18:40:00,32.2,27.9,29.38,SSW,202,3.8,3.8,84,0.00,,,0.00,WUHU21623XXSP,2013-01-05 23:40:00,
2013-01-05 18:45:00,32.2,27.9,29.38,SSW,202,3.8,3.8,84,0.00,,,0.00,WUHU21623XXSP,2013-01-05 23:45:00,
2013-01-05 18:50:00,32.2,27.9,29.37,SSW,202,3.8,3.8,84,0.00,,,0.00,WUHU21623XXSP,2013-01-05 23:50:00,
2013-01-05 18:55:00,32.2,27.9,29.37,SSW,202,3.8,3.8,84,0.00,,,0.00,WUHU21623XXSP,2013-01-05 23:55:00,
2013-01-05 19:59:00,31.6,27.7,29.37,South,180,0.0,0.0,85,0.00,,,0.00,WUHU21623XXSP,2013-01-06 00:59:00,
2013-01-05 20:04:00,31.6,27.7,29.37,WNW,292,0.0,0.0,85,0.00,,,0.00,WUHU21623XXSP,2013-01-06 01:04:00,
2013-01-05 20:09:00,31.6,27.7,29.38,WSW,247,0.0,0.0,85,0.00,,,0.00,WUHU21623XXSP,2013-01-06 01:09:00,
2013-01-05 20:14:00,31.6,27.7,29.39,WSW,247,0.0,0.0,85,0.00,,,0.00,WUHU21623XXSP,2013-01-06 01:14:00,
2013-01-05 20:19:00,31.6,27.7,29.38,SSW,202,1.6,1.6,85,0.00,,,0.00,WUHU21623XXSP,2013-01-06 01:19:00,
2013-01-05 20:24:00,31.6,27.7,29.37,SSE,157,2.5,2.5,85,0.00,,,0.00,WUHU21623XXSP,2013-01-06 01:24:00,
2013-01-05 20:29:00,31.6,27.7,29.37,SSE,157,2.5,2.5,85,0.00,,,0.00,WUHU21623XXSP,2013-01-06 01:29:00,
2013-01-05 20:34:00,31.6,27.7,29.37,SSE,157,2.5,2.5,85,0.00,,,0.00,WUHU21623XXSP,2013-01-06 01:34:00,
2013-01-05 20:39:00,31.6,27.7,29.37,SSE,157,2.5,2.5,85,0.00,,,0.00,WUHU21623XXSP,2013-01-06 01:39:00,
2013-01-05 21:59:00,32.7,28.5,29.35,South,180,9.4,9.4,85,0.00,,,0.00,WUHU21623XXSP,2013-01-06 02:59:00,
2013-01-05 22:04:00,32.7,28.7,29.35,SSW,202,4.0,9.4,85,0.00,,,0.00,WUHU21623XXSP,2013-01-06 03:04:00,
2013-01-05 22:09:00,32.7,28.7,29.35,SSE,157,7.6,9.4,85,0.00,,,0.00,WUHU21623XXSP,2013-01-06 03:09:00,
2013-01-05 22:14:00,32.7,28.7,29.35,SW,225,3.4,8.9,85,0.00,,,0.00,WUHU21623XXSP,2013-01-06 03:14:00,
2013-01-05 22:19:00,32.7,28.7,29.35,SW,225,3.4,8.9,85,0.00,,,0.00,WUHU21623XXSP,2013-01-06 03:19:00,
2013-01-05 22:24:00,32.7,28.7,29.35,South,180,3.6,3.6,85,0.00,,,0.00,WUHU21623XXSP,2013-01-06 03:24:00,
2013-01-05 22:29:00,32.7,28.7,29.35,South,180,3.6,3.6,85,0.00,,,0.00,WUHU21623XXSP,2013-01-06 03:29:00,
2013-01-05 22:34:00,32.7,28.7,29.34,South,180,2.5,3.6,85,0.00,,,0.00,WUHU21623XXSP,2013-01-06 03:34:00,
2013-01-05 22:39:00,32.7,28.7,29.34,SW,225,11.4,11.4,85,0.00,,,0.00,WUHU21623XXSP,2013-01-06 03:39:00,
2013-01-05 22:44:00,32.7,28.7,29.34,South,180,6.7,11.4,85,0.00,,,0.00,WUHU21623XXSP,2013-01-06 03:44:00,
2013-01-05 22:49:00,32.7,28.4,29.34,SSW,202,1.3,6.7,84,0.00,,,0.00,WUHU21623XXSP,2013-01-06 03:49:00,
2013-01-05 22:54:00,32.7,28.4,29.34,South,180,0.7,2.9,84,0.00,,,0.00,WUHU21623XXSP,2013-01-06 03:54:00,
2013-01-05 22:59:00,32.9,28.6,29.34,SW,225,6.9,6.9,84,0.00,,,0.00,WUHU21623XXSP,2013-01-06 03:59:00,
2013-01-05 23:04:00,32.9,28.6,29.34,SW,225,6.9,6.9,84,0.00,,,0.00,WUHU21623XXSP,2013-01-06 04:04:00,
2013-01-05 23:09:00,32.9,28.6,29.33,South,180,3.1,6.9,84,0.00,,,0.00,WUHU21623XXSP,2013-01-06 04:09:00,
2013-01-05 23:14:00,32.9,28.6,29.33,SSE,157,4.7,4.7,84,0.00,,,0.00,WUHU21623XXSP,2013-01-06 04:14:00,
2013-01-05 23:19:00,32.9,28.6,29.34,SSE,157,4.7,4.7,84,0.00,,,0.00,WUHU21623XXSP,2013-01-06 04:19:00,
2013-01-05 23:24:00,32.9,28.6,29.33,SSE,157,4.7,4.7,84,0.00,,,0.00,WUHU21623XXSP,2013-01-06 04:24:00,
2013-01-05 23:29:00,32.9,28.6,29.34,SSE,157,4.7,4.7,84,0.00,,,0.00,WUHU21623XXSP,2013-01-06 04:29:00,
2013-01-05 23:34:00,33.1,28.7,29.33,SSW,202,6.0,6.0,84,0.00,,,0.00,WUHU21623XXSP,2013-01-06 04:34:00,
2013-01-05 23:39:00,33.1,28.7,29.32,SSE,157,3.1,6.0,84,0.00,,,0.00,WUHU21623XXSP,2013-01-06 04:39:00,
2013-01-05 23:44:00,33.3,28.6,29.32,South,180,3.4,3.4,83,0.00,,,0.00,WUHU21623XXSP,2013-01-06 04:44:00,
2013-01-05 23:49:00,33.3,28.6,29.32,South,180,3.4,3.4,83,0.00,,,0.00,WUHU21623XXSP,2013-01-06 04:49:00,
2013-01-05 23:54:00,33.4,28.8,29.32,SSE,157,0.0,3.4,83,0.00,,,0.00,WUHU21623XXSP,2013-01-06 04:54:00,
2013-01-05 23:59:00,33.4,28.8,29.32,SSW,202,12.5,12.5,83,0.00,,,0.00,WUHU21623XXSP,2013-01-06 04:59:00,